Time;durP1;ratioP1;P1;durP2;ratioP2;P2;SDS_P1;SDS_P2;PMS_P1;PMS_P2;Temp;Humidity;BMP_temperature;BMP_pressure;BME280_temperature;BME280_humidity;BME280_pressure;Samples;Min_cycle;Max_cycle;Signal;HPM_P1;HPM_P2
2024/03/13 00:01:53;;;;;;;21.05;10.55;;;;;;;;;;7561960;19;20014;-73
2024/03/13 00:04:34;;;;;;;16.02;9.52;;;;;;;;;;7551493;19;20018;-73
2024/03/13 00:07:10;;;;;;;18.30;10.85;;;;;;;;;;7569267;19;20862;-73
2024/03/13 00:09:45;;;;;;;21.35;10.75;;;;;;;;;;7540010;19;20755;-72
2024/03/13 00:12:18;;;;;;;20.38;10.75;;;;;;;;;;7570055;19;20021;-72
2024/03/13 00:14:52;;;;;;;21.00;10.20;;;;;;;;;;7554788;19;20078;-72
2024/03/13 00:17:25;;;;;;;17.50;9.80;;;;;;;;;;7556972;19;20060;-72
2024/03/13 00:19:57;;;;;;;21.08;10.15;;;;;;;;;;7554701;19;20194;-72
2024/03/13 00:22:30;;;;;;;23.50;10.63;;;;;;;;;;7567111;19;20106;-72
2024/03/13 00:25:03;;;;;;;18.40;10.27;;;;;;;;;;7577301;19;20850;-72
2024/03/13 00:27:37;;;;;;;18.73;10.63;;;;;;;;;;7574783;19;20962;-72
2024/03/13 00:30:10;;;;;;;18.70;9.85;;;;;;;;;;7564614;19;20036;-72
2024/03/13 00:32:44;;;;;;;19.90;10.60;;;;;;;;;;7569253;19;20014;-72
2024/03/13 00:35:17;;;;;;;21.33;11.10;;;;;;;;;;7572780;19;20021;-72
2024/03/13 00:37:50;;;;;;;18.33;10.25;;;;;;;;;;7566079;19;20006;-72
2024/03/13 00:40:23;;;;;;;19.23;10.43;;;;;;;;;;7571972;19;20018;-72
2024/03/13 00:42:55;;;;;;;22.20;10.67;;;;;;;;;;7529768;19;21492;-72
2024/03/13 00:45:29;;;;;;;20.40;10.43;;;;;;;;;;7553040;19;20653;-72
2024/03/13 00:48:01;;;;;;;20.23;10.48;;;;;;;;;;7573213;19;20257;-72
2024/03/13 00:50:34;;;;;;;18.20;9.67;;;;;;;;;;7554755;19;20025;-72
2024/03/13 00:53:08;;;;;;;20.30;10.70;;;;;;;;;;7544845;19;21197;-72
2024/03/13 00:55:41;;;;;;;17.92;10.05;;;;;;;;;;7553178;19;20028;-73
2024/03/13 00:58:14;;;;;;;19.65;10.43;;;;;;;;;;7586883;19;20898;-72
2024/03/13 01:00:48;;;;;;;21.10;9.93;;;;;;;;;;7564617;19;21085;-72
2024/03/13 01:03:22;;;;;;;17.40;9.20;;;;;;;;;;7566875;19;20018;-72
2024/03/13 01:05:56;;;;;;;21.75;10.48;;;;;;;;;;7552794;19;20033;-72
2024/03/13 01:08:28;;;;;;;19.02;9.82;;;;;;;;;;7567996;19;20025;-72
2024/03/13 01:11:01;;;;;;;17.35;9.07;;;;;;;;;;7573781;19;20029;-72
2024/03/13 01:13:34;;;;;;;17.47;9.67;;;;;;;;;;7549241;19;20025;-71
2024/03/13 01:16:07;;;;;;;18.65;9.93;;;;;;;;;;7572318;19;20282;-72
2024/03/13 01:18:41;;;;;;;20.02;9.80;;;;;;;;;;7559513;19;20025;-72
2024/03/13 01:21:14;;;;;;;16.33;9.98;;;;;;;;;;7586319;19;20047;-72
2024/03/13 01:23:46;;;;;;;17.58;8.85;;;;;;;;;;7578980;19;20055;-72
2024/03/13 01:26:20;;;;;;;19.05;9.57;;;;;;;;;;7570862;19;21027;-72
2024/03/13 01:28:53;;;;;;;17.60;9.98;;;;;;;;;;7581276;19;20812;-74
2024/03/13 01:31:27;;;;;;;14.93;8.80;;;;;;;;;;7576946;19;21080;-72
2024/03/13 01:34:01;;;;;;;17.48;8.45;;;;;;;;;;7574966;19;21041;-73
2024/03/13 01:39:26;;;;;;;19.73;9.35;;;;;;;;;;7571735;19;20014;-73
2024/03/13 01:56:33;;;;;;;19.08;9.43;;;;;;;;;;7535183;19;20926;-73
2024/03/13 01:59:19;;;;;;;19.87;10.00;;;;;;;;;;7568447;19;20021;-73
2024/03/13 02:04:48;;;;;;;17.88;9.98;;;;;;;;;;7581593;19;20014;-73
2024/03/13 02:07:24;;;;;;;19.02;10.20;;;;;;;;;;7564277;19;20082;-73
2024/03/13 02:09:59;;;;;;;20.15;9.93;;;;;;;;;;7570990;19;20014;-73
2024/03/13 02:12:32;;;;;;;20.20;9.50;;;;;;;;;;7575854;19;20033;-73
2024/03/13 02:15:05;;;;;;;19.83;9.43;;;;;;;;;;7577112;19;20021;-73
2024/03/13 02:17:39;;;;;;;19.50;10.32;;;;;;;;;;7530509;19;20007;-73
2024/03/13 02:20:15;;;;;;;18.52;9.80;;;;;;;;;;7560718;19;20018;-73
2024/03/13 02:22:49;;;;;;;14.90;9.52;;;;;;;;;;7581259;19;20014;-73
2024/03/13 02:25:21;;;;;;;18.77;9.73;;;;;;;;;;7585004;19;20026;-73
2024/03/13 02:27:55;;;;;;;17.25;9.77;;;;;;;;;;7566924;19;20659;-73
2024/03/13 02:30:27;;;;;;;16.73;9.67;;;;;;;;;;7574549;19;20059;-73
2024/03/13 02:33:00;;;;;;;18.58;9.82;;;;;;;;;;7578668;19;20275;-73
2024/03/13 02:35:33;;;;;;;14.43;8.60;;;;;;;;;;7571376;19;20743;-73
2024/03/13 02:38:07;;;;;;;20.15;10.93;;;;;;;;;;7567921;19;20014;-73
2024/03/13 02:40:41;;;;;;;16.92;9.40;;;;;;;;;;7572904;19;20022;-73
2024/03/13 02:43:14;;;;;;;16.67;9.20;;;;;;;;;;7570676;19;20026;-72
2024/03/13 02:45:46;;;;;;;17.50;9.00;;;;;;;;;;7571824;19;20791;-73
2024/03/13 02:48:19;;;;;;;14.23;9.15;;;;;;;;;;7584489;19;21086;-72
2024/03/13 02:50:52;;;;;;;15.20;8.80;;;;;;;;;;7576957;19;20029;-72
2024/03/13 02:53:25;;;;;;;15.30;8.63;;;;;;;;;;7555643;19;20357;-72
2024/03/13 02:55:58;;;;;;;17.63;10.07;;;;;;;;;;7535831;19;21525;-72
2024/03/13 02:58:31;;;;;;;18.70;9.83;;;;;;;;;;7576873;19;20015;-72
2024/03/13 03:01:04;;;;;;;19.67;9.90;;;;;;;;;;7568850;19;20287;-72
2024/03/13 03:03:36;;;;;;;17.35;9.73;;;;;;;;;;7558752;19;21015;-72
2024/03/13 03:06:10;;;;;;;17.13;10.07;;;;;;;;;;7538793;19;20033;-72
2024/03/13 03:08:44;;;;;;;19.10;9.50;;;;;;;;;;7545812;19;20271;-71
2024/03/13 03:11:17;;;;;;;16.83;9.65;;;;;;;;;;7562776;19;20023;-72
2024/03/13 03:13:50;;;;;;;18.95;9.75;;;;;;;;;;7572740;19;20056;-72
2024/03/13 03:16:23;;;;;;;15.77;9.37;;;;;;;;;;7576620;19;20026;-72
2024/03/13 03:18:56;;;;;;;21.60;9.55;;;;;;;;;;7558357;19;20851;-72
2024/03/13 03:21:28;;;;;;;17.52;9.13;;;;;;;;;;7576697;19;20730;-73
2024/03/13 03:24:02;;;;;;;17.73;9.30;;;;;;;;;;7575820;19;20010;-71
2024/03/13 03:26:34;;;;;;;16.52;9.43;;;;;;;;;;7560283;19;21263;-72
2024/03/13 03:29:08;;;;;;;15.77;8.43;;;;;;;;;;7539040;19;20022;-72
2024/03/13 03:31:41;;;;;;;18.50;8.23;;;;;;;;;;7535155;19;20039;-72
2024/03/13 03:34:14;;;;;;;16.02;8.75;;;;;;;;;;7532324;19;20026;-72
2024/03/13 03:36:48;;;;;;;14.75;8.10;;;;;;;;;;7537106;19;20101;-72
2024/03/13 03:39:24;;;;;;;18.70;9.13;;;;;;;;;;7539403;19;20522;-73
2024/03/13 03:41:57;;;;;;;17.83;8.75;;;;;;;;;;7526837;19;20116;-73
2024/03/13 03:44:30;;;;;;;17.92;9.02;;;;;;;;;;7524068;19;20019;-73
2024/03/13 03:47:03;;;;;;;19.23;9.30;;;;;;;;;;7516099;19;20013;-72
2024/03/13 03:49:35;;;;;;;18.00;9.07;;;;;;;;;;7522764;19;20018;-73
2024/03/13 03:52:08;;;;;;;17.17;9.20;;;;;;;;;;7544124;19;20036;-73
2024/03/13 03:54:41;;;;;;;14.90;8.10;;;;;;;;;;7530255;19;20116;-73
2024/03/13 03:57:14;;;;;;;21.30;9.52;;;;;;;;;;7549163;19;20541;-72
2024/03/13 03:59:47;;;;;;;14.68;8.05;;;;;;;;;;7540291;19;20027;-72
2024/03/13 04:02:20;;;;;;;16.97;8.33;;;;;;;;;;7547468;19;20023;-73
2024/03/13 04:04:53;;;;;;;21.33;9.55;;;;;;;;;;7540762;19;20279;-72
2024/03/13 04:07:26;;;;;;;16.60;8.35;;;;;;;;;;7567294;19;20044;-73
2024/03/13 04:09:59;;;;;;;17.30;8.87;;;;;;;;;;7561701;19;20841;-73
2024/03/13 04:12:33;;;;;;;15.98;8.00;;;;;;;;;;7557574;19;20287;-73
2024/03/13 04:15:06;;;;;;;19.73;9.85;;;;;;;;;;7582356;19;20029;-73
2024/03/13 04:17:40;;;;;;;23.27;9.65;;;;;;;;;;7582642;19;22948;-73
2024/03/13 04:20:18;;;;;;;14.27;8.52;;;;;;;;;;7563160;19;20023;-73
2024/03/13 04:22:54;;;;;;;19.63;9.60;;;;;;;;;;7586173;19;20016;-74
2024/03/13 04:25:27;;;;;;;19.80;10.50;;;;;;;;;;7567952;19;20034;-73
2024/03/13 04:28:00;;;;;;;29.45;11.80;;;;;;;;;;7566543;19;20613;-73
2024/03/13 04:30:33;;;;;;;19.97;10.87;;;;;;;;;;7578210;19;20018;-73
2024/03/13 04:33:05;;;;;;;35.95;12.52;;;;;;;;;;7579596;19;20033;-74
2024/03/13 04:35:38;;;;;;;25.93;11.73;;;;;;;;;;7568860;19;20055;-73
2024/03/13 04:38:13;;;;;;;23.73;10.90;;;;;;;;;;7568112;19;20093;-73
2024/03/13 04:40:45;;;;;;;25.20;11.60;;;;;;;;;;7540606;19;20066;-72
2024/03/13 04:43:18;;;;;;;30.77;13.98;;;;;;;;;;7567236;19;20018;-72
2024/03/13 04:45:51;;;;;;;23.23;11.98;;;;;;;;;;7557525;19;20241;-72
2024/03/13 04:48:25;;;;;;;24.63;12.27;;;;;;;;;;7566445;19;20034;-72
2024/03/13 04:50:59;;;;;;;23.88;11.10;;;;;;;;;;7543936;19;20017;-75
2024/03/13 04:53:32;;;;;;;30.60;12.65;;;;;;;;;;7549070;19;20018;-72
2024/03/13 04:56:05;;;;;;;37.65;12.82;;;;;;;;;;7547026;19;20029;-72
2024/03/13 04:58:38;;;;;;;32.70;13.60;;;;;;;;;;7536977;19;20130;-71
2024/03/13 05:01:18;;;;;;;22.42;11.30;;;;;;;;;;7548936;19;20037;-73
2024/03/13 05:03:51;;;;;;;24.08;11.48;;;;;;;;;;7556834;19;20097;-73
2024/03/13 05:06:24;;;;;;;25.73;12.07;;;;;;;;;;7550823;19;20022;-73
2024/03/13 05:08:57;;;;;;;19.05;11.00;;;;;;;;;;7542229;19;20328;-74
2024/03/13 05:11:30;;;;;;;26.00;14.07;;;;;;;;;;7560409;19;20021;-75
2024/03/13 05:14:02;;;;;;;27.60;13.53;;;;;;;;;;7558251;19;20275;-75
2024/03/13 05:16:40;;;;;;;25.10;13.23;;;;;;;;;;7563382;19;20106;-75
2024/03/13 05:19:13;;;;;;;18.08;9.60;;;;;;;;;;7569894;19;20279;-74
2024/03/13 05:21:46;;;;;;;24.50;11.43;;;;;;;;;;7557754;19;20468;-75
2024/03/13 05:24:19;;;;;;;27.05;12.07;;;;;;;;;;7551224;19;20018;-74
2024/03/13 05:26:54;;;;;;;23.20;11.87;;;;;;;;;;7553637;19;20023;-74
2024/03/13 05:29:27;;;;;;;23.40;12.10;;;;;;;;;;7559730;19;20014;-74
2024/03/13 05:32:07;;;;;;;22.80;11.30;;;;;;;;;;7540203;19;20805;-74
2024/03/13 05:34:40;;;;;;;13.43;8.10;;;;;;;;;;7557388;19;20129;-75
2024/03/13 05:37:13;;;;;;;17.30;8.55;;;;;;;;;;7552465;19;20014;-75
2024/03/13 05:39:48;;;;;;;16.52;8.02;;;;;;;;;;7562111;19;20015;-75
2024/03/13 05:42:22;;;;;;;16.75;9.07;;;;;;;;;;7555320;19;20017;-75
2024/03/13 05:44:54;;;;;;;16.83;9.10;;;;;;;;;;7568137;19;20492;-74
2024/03/13 05:47:28;;;;;;;21.52;9.63;;;;;;;;;;7577772;19;20093;-75
2024/03/13 05:50:01;;;;;;;17.03;9.07;;;;;;;;;;7561696;19;20606;-74
2024/03/13 05:52:33;;;;;;;19.97;10.07;;;;;;;;;;7551865;19;20010;-70
2024/03/13 05:55:06;;;;;;;21.00;10.30;;;;;;;;;;7514827;19;20348;-72
2024/03/13 05:57:39;;;;;;;25.15;11.50;;;;;;;;;;7532098;19;20539;-75
2024/03/13 06:00:13;;;;;;;19.88;10.77;;;;;;;;;;7542768;19;20293;-73
2024/03/13 06:02:46;;;;;;;;;;;;;;;;;;7482824;19;20018;-73
2024/03/13 06:05:19;;;;;;;22.50;10.17;;;;;;;;;;7542015;19;19921;-75
2024/03/13 06:07:56;;;;;;;24.88;11.57;;;;;;;;;;7530747;19;20051;-76
2024/03/13 06:10:30;;;;;;;18.13;10.15;;;;;;;;;;7572914;19;20015;-76
2024/03/13 06:13:04;;;;;;;21.35;11.27;;;;;;;;;;7531513;19;20030;-76
2024/03/13 06:15:37;;;;;;;19.98;10.80;;;;;;;;;;7567129;19;20014;-76
2024/03/13 06:18:12;;;;;;;26.90;13.52;;;;;;;;;;7541508;19;20545;-77
2024/03/13 06:20:47;;;;;;;34.17;16.63;;;;;;;;;;7520144;19;20105;-75
2024/03/13 06:23:20;;;;;;;33.83;16.27;;;;;;;;;;7529947;19;20664;-77
2024/03/13 06:25:54;;;;;;;;;;;;;;;;;;7545824;19;20114;-74
2024/03/13 06:31:19;;;;;;;29.38;13.63;;;;;;;;;;7523511;19;21158;-77
2024/03/13 06:33:53;;;;;;;26.52;13.40;;;;;;;;;;7532492;19;20018;-76
2024/03/13 06:36:26;;;;;;;29.48;13.63;;;;;;;;;;7516103;19;20029;-74
2024/03/13 06:38:59;;;;;;;22.02;11.77;;;;;;;;;;7561505;19;20010;-75
2024/03/13 06:41:32;;;;;;;28.05;13.55;;;;;;;;;;7593310;19;20071;-75
2024/03/13 06:44:05;;;;;;;17.90;9.93;;;;;;;;;;7586621;19;20191;-75
2024/03/13 06:46:38;;;;;;;26.90;11.68;;;;;;;;;;7573221;19;20014;-75
2024/03/13 06:49:11;;;;;;;23.95;13.70;;;;;;;;;;7578794;19;20432;-75
2024/03/13 06:51:44;;;;;;;34.33;14.63;;;;;;;;;;7587318;19;20539;-76
2024/03/13 06:54:17;;;;;;;23.30;13.40;;;;;;;;;;7569540;19;20320;-74
2024/03/13 06:56:51;;;;;;;27.48;13.80;;;;;;;;;;7589268;19;20022;-75
2024/03/13 06:59:23;;;;;;;25.15;13.80;;;;;;;;;;7581104;19;20606;-75
2024/03/13 07:01:56;;;;;;;21.67;13.43;;;;;;;;;;7582746;19;20041;-75
2024/03/13 07:04:29;;;;;;;24.07;13.13;;;;;;;;;;7573943;19;20823;-75
2024/03/13 07:07:02;;;;;;;35.60;14.05;;;;;;;;;;7580427;19;20014;-76
2024/03/13 07:09:36;;;;;;;27.83;11.57;;;;;;;;;;7577030;19;21209;-75
2024/03/13 07:12:11;;;;;;;29.48;14.23;;;;;;;;;;7573535;19;20021;-76
2024/03/13 07:14:44;;;;;;;23.00;12.60;;;;;;;;;;7560766;19;20021;-76
2024/03/13 07:17:17;;;;;;;31.63;15.30;;;;;;;;;;7566124;19;20688;-74
2024/03/13 07:19:50;;;;;;;55.53;16.67;;;;;;;;;;7553068;19;20022;-76
2024/03/13 07:22:25;;;;;;;42.55;12.85;;;;;;;;;;7569191;19;21545;-76
2024/03/13 07:24:58;;;;;;;36.50;10.10;;;;;;;;;;7572470;19;20966;-76
2024/03/13 07:27:32;;;;;;;27.70;11.15;;;;;;;;;;7582968;19;20022;-76
2024/03/13 07:30:06;;;;;;;16.90;9.05;;;;;;;;;;7576663;19;20103;-77
2024/03/13 07:32:41;;;;;;;16.92;7.60;;;;;;;;;;7586146;19;20010;-76
2024/03/13 07:35:14;;;;;;;13.90;6.15;;;;;;;;;;7548360;19;20023;-76
2024/03/13 07:37:47;;;;;;;11.30;7.05;;;;;;;;;;7573641;19;20011;-74
2024/03/13 07:40:24;;;;;;;32.23;9.70;;;;;;;;;;7573627;19;20018;-75
2024/03/13 07:42:57;;;;;;;26.20;9.98;;;;;;;;;;7584455;19;20026;-76
2024/03/13 07:45:31;;;;;;;15.57;8.88;;;;;;;;;;7573810;19;20808;-75
2024/03/13 07:48:10;;;;;;;16.65;8.00;;;;;;;;;;7574678;19;20022;-74
2024/03/13 07:50:43;;;;;;;14.82;8.50;;;;;;;;;;7549020;19;20018;-75
2024/03/13 07:53:16;;;;;;;19.27;9.07;;;;;;;;;;7581634;19;20210;-75
2024/03/13 07:55:52;;;;;;;13.23;6.40;;;;;;;;;;7590572;19;20011;-74
2024/03/13 07:58:25;;;;;;;15.30;7.43;;;;;;;;;;7586422;19;20047;-75
2024/03/13 08:00:58;;;;;;;9.10;5.30;;;;;;;;;;7562383;19;20014;-75
2024/03/13 08:03:32;;;;;;;13.32;7.20;;;;;;;;;;7574396;19;20007;-75
2024/03/13 08:06:07;;;;;;;14.70;7.10;;;;;;;;;;7584575;19;20018;-74
2024/03/13 08:08:54;;;;;;;10.75;5.85;;;;;;;;;;7575138;19;20014;-74
2024/03/13 08:11:40;;;;;;;10.48;4.97;;;;;;;;;;7582184;19;20014;-74
2024/03/13 08:14:27;;;;;;;14.30;5.47;;;;;;;;;;7577668;19;21012;-75
2024/03/13 08:17:14;;;;;;;8.98;4.65;;;;;;;;;;7570572;19;20022;-74
2024/03/13 08:20:01;;;;;;;8.05;4.32;;;;;;;;;;7568359;19;20022;-75
2024/03/13 08:22:48;;;;;;;5.95;3.88;;;;;;;;;;7580772;19;20022;-75
2024/03/13 08:25:35;;;;;;;4.15;2.90;;;;;;;;;;7585412;19;20082;-74
2024/03/13 08:28:22;;;;;;;5.28;3.28;;;;;;;;;;7571414;19;20022;-75
2024/03/13 08:31:10;;;;;;;5.70;3.67;;;;;;;;;;7586502;19;21056;-74
2024/03/13 08:33:57;;;;;;;7.00;2.90;;;;;;;;;;7579705;19;20030;-75
2024/03/13 08:36:44;;;;;;;4.38;2.60;;;;;;;;;;7577337;19;20099;-74
2024/03/13 08:39:30;;;;;;;7.00;3.15;;;;;;;;;;7565132;19;20792;-74
2024/03/13 08:42:17;;;;;;;4.75;2.67;;;;;;;;;;7569892;19;20314;-74
2024/03/13 08:45:04;;;;;;;3.83;2.05;;;;;;;;;;7568475;19;20014;-74
2024/03/13 08:47:53;;;;;;;5.38;2.22;;;;;;;;;;7581771;19;20015;-75
2024/03/13 08:50:40;;;;;;;4.35;2.50;;;;;;;;;;7563048;19;20011;-74
2024/03/13 08:53:27;;;;;;;3.85;1.80;;;;;;;;;;7582057;19;20024;-74
2024/03/13 08:56:14;;;;;;;2.95;1.83;;;;;;;;;;7571223;19;20034;-76
2024/03/13 08:59:02;;;;;;;2.42;1.73;;;;;;;;;;7562542;19;20026;-75
2024/03/13 09:01:48;;;;;;;2.65;1.58;;;;;;;;;;7588297;19;20022;-76
2024/03/13 09:04:35;;;;;;;2.72;1.98;;;;;;;;;;7578463;19;20050;-74
2024/03/13 09:07:22;;;;;;;3.33;2.08;;;;;;;;;;7581300;19;20025;-76
2024/03/13 09:09:56;;;;;;;3.58;1.70;;;;;;;;;;7582600;19;21138;-76
2024/03/13 09:12:29;;;;;;;2.47;1.80;;;;;;;;;;7583548;19;20130;-75
2024/03/13 09:15:03;;;;;;;1.95;1.63;;;;;;;;;;7586268;19;20010;-74
2024/03/13 09:17:36;;;;;;;3.50;1.83;;;;;;;;;;7586623;19;20602;-75
2024/03/13 09:20:13;;;;;;;4.28;1.63;;;;;;;;;;7548140;19;20011;-75
2024/03/13 09:22:46;;;;;;;2.60;1.53;;;;;;;;;;7051739;19;10000444;-75
2024/03/13 09:25:19;;;;;;;5.10;2.73;;;;;;;;;;6567053;19;10000118;-76
2024/03/13 09:27:52;;;;;;;2.67;2.07;;;;;;;;;;7569224;19;20455;-75
2024/03/13 09:30:24;;;;;;;2.63;1.60;;;;;;;;;;7568354;19;20019;-75
2024/03/13 09:32:59;;;;;;;7.63;2.45;;;;;;;;;;7560446;19;20026;-74
2024/03/13 09:35:32;;;;;;;3.10;1.70;;;;;;;;;;7559439;19;20022;-74
2024/03/13 09:38:06;;;;;;;1.77;1.48;;;;;;;;;;7577584;19;21054;-74
2024/03/13 09:40:42;;;;;;;2.70;1.77;;;;;;;;;;7571840;19;20128;-74
2024/03/13 09:43:22;;;;;;;2.53;1.60;;;;;;;;;;7566112;19;20173;-74
2024/03/13 09:45:56;;;;;;;2.30;1.52;;;;;;;;;;7541747;19;20285;-74
2024/03/13 09:48:29;;;;;;;2.85;1.50;;;;;;;;;;7576205;19;20610;-74
2024/03/13 09:51:02;;;;;;;2.80;1.50;;;;;;;;;;7580041;19;20023;-74
2024/03/13 09:53:41;;;;;;;2.35;1.63;;;;;;;;;;7566131;19;20022;-74
2024/03/13 09:56:15;;;;;;;3.20;1.90;;;;;;;;;;7588835;19;20020;-74
2024/03/13 09:58:50;;;;;;;1.75;1.40;;;;;;;;;;7562184;19;20025;-74
2024/03/13 10:01:27;;;;;;;4.82;1.33;;;;;;;;;;7577453;19;20033;-74
2024/03/13 10:04:10;;;;;;;1.75;1.35;;;;;;;;;;7583869;19;21172;-73
2024/03/13 10:06:44;;;;;;;4.10;1.63;;;;;;;;;;7551254;19;20055;-74
2024/03/13 10:09:16;;;;;;;1.42;1.10;;;;;;;;;;7569580;19;20019;-74
2024/03/13 10:11:51;;;;;;;2.67;1.60;;;;;;;;;;7565226;19;20018;-74
2024/03/13 10:14:24;;;;;;;1.70;1.35;;;;;;;;;;7563473;19;20014;-74
2024/03/13 10:17:03;;;;;;;1.58;1.00;;;;;;;;;;7561586;19;20013;-74
2024/03/13 10:19:39;;;;;;;1.38;1.20;;;;;;;;;;7578017;19;20014;-74
2024/03/13 10:22:13;;;;;;;1.67;1.35;;;;;;;;;;7588186;19;20082;-74
2024/03/13 10:24:47;;;;;;;3.05;1.00;;;;;;;;;;7572356;19;20014;-74
2024/03/13 10:27:20;;;;;;;4.95;1.73;;;;;;;;;;7578392;19;21179;-74
2024/03/13 10:29:53;;;;;;;1.88;1.45;;;;;;;;;;7574763;19;20018;-74
2024/03/13 10:32:26;;;;;;;1.92;1.55;;;;;;;;;;7562790;19;20590;-75
2024/03/13 10:34:59;;;;;;;1.63;1.20;;;;;;;;;;7540529;19;21410;-75
2024/03/13 10:37:35;;;;;;;4.65;1.27;;;;;;;;;;7576017;19;20026;-75
2024/03/13 10:40:08;;;;;;;1.55;1.40;;;;;;;;;;7575290;19;21105;-75
2024/03/13 10:42:42;;;;;;;3.15;1.23;;;;;;;;;;7567414;19;20018;-75
2024/03/13 10:45:14;;;;;;;1.80;1.23;;;;;;;;;;7577349;19;20088;-75
2024/03/13 10:47:49;;;;;;;1.77;1.27;;;;;;;;;;7559741;19;22479;-74
2024/03/13 10:50:22;;;;;;;1.63;1.27;;;;;;;;;;7575671;19;20759;-75
2024/03/13 10:52:55;;;;;;;1.88;1.10;;;;;;;;;;7573172;19;21035;-75
2024/03/13 10:55:32;;;;;;;2.10;1.30;;;;;;;;;;7562377;19;20022;-74
2024/03/13 10:58:05;;;;;;;1.38;1.15;;;;;;;;;;7581771;19;20533;-75
2024/03/13 11:00:38;;;;;;;1.80;1.10;;;;;;;;;;7569414;19;20029;-75
2024/03/13 11:03:12;;;;;;;;;;;;;;;;;;7579911;19;20029;-74
2024/03/13 11:05:45;;;;;;;6.70;2.00;;;;;;;;;;7561791;19;19922;-75
2024/03/13 11:08:18;;;;;;;2.40;1.50;;;;;;;;;;7575079;19;20015;-75
2024/03/13 11:10:50;;;;;;;1.30;1.20;;;;;;;;;;7559874;19;22134;-75
2024/03/13 11:13:48;;;;;;;1.42;1.13;;;;;;;;;;7567755;19;20015;-74
2024/03/13 11:16:22;;;;;;;1.80;1.10;;;;;;;;;;7572616;19;20011;-75
2024/03/13 11:18:56;;;;;;;1.40;1.23;;;;;;;;;;7561766;19;20011;-75
2024/03/13 11:21:43;;;;;;;8.27;1.20;;;;;;;;;;7549025;19;20021;-75
2024/03/13 11:24:23;;;;;;;1.48;1.23;;;;;;;;;;7558913;19;20018;-74
2024/03/13 11:27:16;;;;;;;6.07;1.23;;;;;;;;;;7561797;19;20050;-75
2024/03/13 11:29:50;;;;;;;2.30;1.65;;;;;;;;;;7554097;19;20022;-75
2024/03/13 11:32:24;;;;;;;2.75;1.63;;;;;;;;;;7578686;19;20021;-75
2024/03/13 11:34:57;;;;;;;6.70;1.73;;;;;;;;;;7555786;19;20426;-75
2024/03/13 11:37:30;;;;;;;;;;;;;;;;;;7581142;19;20655;-73
2024/03/13 11:40:03;;;;;;;6.55;1.52;;;;;;;;;;7576774;19;19919;-75
2024/03/13 11:42:36;;;;;;;4.72;1.90;;;;;;;;;;7587160;19;20022;-75
2024/03/13 11:45:15;;;;;;;23.60;3.20;;;;;;;;;;7593602;19;20033;-75
2024/03/13 11:47:57;;;;;;;14.18;2.40;;;;;;;;;;7583040;19;20014;-74
2024/03/13 11:50:31;;;;;;;4.55;2.35;;;;;;;;;;7561377;19;20491;-74
2024/03/13 11:53:06;;;;;;;2.15;1.70;;;;;;;;;;7568640;19;20021;-74
2024/03/13 11:55:40;;;;;;;7.53;2.88;;;;;;;;;;7579072;19;20915;-74
2024/03/13 11:58:19;;;;;;;4.30;1.70;;;;;;;;;;7571146;19;20010;-74
2024/03/13 12:00:52;;;;;;;2.47;1.60;;;;;;;;;;7571415;19;20287;-74
2024/03/13 12:03:29;;;;;;;2.63;1.90;;;;;;;;;;7573556;19;20014;-74
2024/03/13 12:06:01;;;;;;;3.55;1.52;;;;;;;;;;7568020;19;20026;-75
2024/03/13 12:08:36;;;;;;;3.45;1.63;;;;;;;;;;7567931;19;20961;-74
2024/03/13 12:11:17;;;;;;;2.25;1.50;;;;;;;;;;7546072;19;22586;-75
2024/03/13 12:13:50;;;;;;;6.13;2.20;;;;;;;;;;7554316;19;20019;-74
2024/03/13 12:16:23;;;;;;;5.80;3.23;;;;;;;;;;7574061;19;20025;-74
2024/03/13 12:18:56;;;;;;;12.48;5.15;;;;;;;;;;7556767;19;20014;-74
2024/03/13 12:21:30;;;;;;;3.58;2.00;;;;;;;;;;7552726;19;20014;-73
2024/03/13 12:24:03;;;;;;;5.75;2.75;;;;;;;;;;7565166;19;20018;-73
2024/03/13 12:26:36;;;;;;;22.15;3.58;;;;;;;;;;7556929;19;20022;-73
2024/03/13 12:29:09;;;;;;;4.90;1.60;;;;;;;;;;7541201;19;20866;-73
2024/03/13 12:31:45;;;;;;;6.35;1.95;;;;;;;;;;7527953;19;20019;-73
2024/03/13 12:34:18;;;;;;;3.05;1.88;;;;;;;;;;7547055;19;20090;-73
2024/03/13 12:36:51;;;;;;;6.20;1.90;;;;;;;;;;7548163;19;20011;-73
2024/03/13 12:39:24;;;;;;;;;;;;;;;;;;7558829;19;20006;-74
2024/03/13 12:41:57;;;;;;;3.47;1.45;;;;;;;;;;7557659;19;19927;-73
2024/03/13 12:44:30;;;;;;;17.60;4.00;;;;;;;;;;7557356;19;20048;-73
2024/03/13 12:47:03;;;;;;;15.00;2.58;;;;;;;;;;7524121;19;20019;-73
2024/03/13 12:49:36;;;;;;;4.05;1.58;;;;;;;;;;7522518;19;20025;-74
2024/03/13 12:52:10;;;;;;;2.15;1.90;;;;;;;;;;7546972;19;20048;-73
2024/03/13 12:54:45;;;;;;;2.03;1.83;;;;;;;;;;7511424;19;20130;-73
2024/03/13 12:57:18;;;;;;;3.50;1.38;;;;;;;;;;7534966;19;20666;-74
2024/03/13 12:59:51;;;;;;;;;;;;;;;;;;7547791;19;20121;-74
2024/03/13 13:02:24;;;;;;;3.50;1.70;;;;;;;;;;7559903;19;19930;-74
2024/03/13 13:04:57;;;;;;;2.25;1.67;;;;;;;;;;7546224;19;20106;-73
2024/03/13 13:07:30;;;;;;;4.05;2.08;;;;;;;;;;7552107;19;20495;-74
2024/03/13 13:10:07;;;;;;;5.10;2.38;;;;;;;;;;7544674;19;20479;-74
2024/03/13 13:12:41;;;;;;;7.80;1.88;;;;;;;;;;7541213;19;20018;-75
2024/03/13 13:15:15;;;;;;;2.10;1.40;;;;;;;;;;7557243;19;20035;-74
2024/03/13 13:17:51;;;;;;;9.52;1.98;;;;;;;;;;7576059;19;21186;-76
2024/03/13 13:20:25;;;;;;;2.83;1.42;;;;;;;;;;7585295;19;20022;-74
2024/03/13 13:22:58;;;;;;;4.00;2.47;;;;;;;;;;7561876;19;20021;-73
2024/03/13 13:25:31;;;;;;;4.65;2.65;;;;;;;;;;7562935;19;20034;-75
2024/03/13 13:28:05;;;;;;;2.47;1.57;;;;;;;;;;7580927;19;20018;-76
2024/03/13 13:30:40;;;;;;;;;;;;;;;;;;7568386;19;20457;-72
2024/03/13 13:33:13;;;;;;;15.70;2.10;;;;;;;;;;7051116;19;10000026;-74
2024/03/13 13:35:47;;;;;;;20.50;2.55;;;;;;;;;;7565672;19;20934;-74
2024/03/13 13:38:23;;;;;;;5.72;1.63;;;;;;;;;;7582358;19;20019;-74
2024/03/13 13:40:56;;;;;;;1.30;1.20;;;;;;;;;;7583649;19;20236;-74
2024/03/13 13:43:32;;;;;;;3.67;1.02;;;;;;;;;;7573474;19;20646;-75
2024/03/13 13:46:08;;;;;;;7.88;1.30;;;;;;;;;;7574954;19;20590;-74
2024/03/13 13:48:41;;;;;;;3.55;1.17;;;;;;;;;;7577255;19;20027;-74
2024/03/13 13:51:14;;;;;;;2.25;1.00;;;;;;;;;;7575763;19;20018;-75
2024/03/13 13:53:48;;;;;;;3.08;0.93;;;;;;;;;;7586454;19;20042;-73
2024/03/13 13:56:21;;;;;;;0.80;0.77;;;;;;;;;;7573026;19;20729;-74
2024/03/13 13:58:54;;;;;;;1.53;1.17;;;;;;;;;;7584392;19;20023;-74
2024/03/13 14:01:28;;;;;;;3.10;1.02;;;;;;;;;;7581199;19;20025;-74
2024/03/13 14:04:02;;;;;;;7.80;0.80;;;;;;;;;;7575767;19;20019;-75
2024/03/13 14:06:35;;;;;;;0.90;0.90;;;;;;;;;;7585707;19;20018;-75
2024/03/13 14:09:13;;;;;;;5.75;0.90;;;;;;;;;;7563648;19;20022;-75
2024/03/13 14:11:47;;;;;;;2.55;0.57;;;;;;;;;;7562197;19;20015;-74
2024/03/13 14:14:20;;;;;;;2.35;0.80;;;;;;;;;;7581705;19;20015;-74
2024/03/13 14:16:53;;;;;;;0.47;0.47;;;;;;;;;;7582581;19;20119;-74
2024/03/13 14:19:29;;;;;;;0.80;0.70;;;;;;;;;;7578150;19;20747;-74
2024/03/13 14:22:02;;;;;;;2.45;0.73;;;;;;;;;;7574154;19;20044;-74
2024/03/13 14:24:34;;;;;;;0.70;0.70;;;;;;;;;;7568653;19;20020;-75
2024/03/13 14:27:08;;;;;;;2.97;0.88;;;;;;;;;;7568330;19;20102;-74
2024/03/13 14:29:41;;;;;;;1.13;0.80;;;;;;;;;;7563498;19;20018;-74
2024/03/13 14:32:15;;;;;;;2.25;0.90;;;;;;;;;;7579383;19;20025;-74
2024/03/13 14:34:48;;;;;;;9.90;1.00;;;;;;;;;;7566736;19;20118;-74
2024/03/13 14:37:31;;;;;;;2.03;0.65;;;;;;;;;;7576825;19;20015;-75
2024/03/13 14:40:05;;;;;;;0.80;0.80;;;;;;;;;;7552984;19;20011;-74
2024/03/13 14:42:39;;;;;;;0.95;0.70;;;;;;;;;;7570426;19;20021;-74
2024/03/13 14:45:12;;;;;;;0.90;0.90;;;;;;;;;;7574264;19;20103;-74
2024/03/13 14:47:45;;;;;;;1.27;0.87;;;;;;;;;;7573407;19;20006;-74
2024/03/13 14:50:19;;;;;;;0.77;0.68;;;;;;;;;;7573225;19;20818;-74
2024/03/13 14:52:53;;;;;;;1.60;1.00;;;;;;;;;;7570815;19;20889;-75
2024/03/13 14:55:37;;;;;;;1.05;0.95;;;;;;;;;;7581483;19;20014;-74
2024/03/13 14:58:11;;;;;;;;;;;;;;;;;;7575974;19;20021;-74
2024/03/13 15:00:45;;;;;;;1.63;1.00;;;;;;;;;;7570339;19;20034;-74
2024/03/13 15:03:17;;;;;;;1.35;0.90;;;;;;;;;;7560046;19;20043;-74
2024/03/13 15:05:52;;;;;;;2.67;1.05;;;;;;;;;;7566886;19;20011;-74
2024/03/13 15:08:25;;;;;;;1.15;0.70;;;;;;;;;;7552629;19;20082;-74
2024/03/13 15:10:58;;;;;;;1.83;1.07;;;;;;;;;;7569421;19;20498;-76
2024/03/13 15:13:31;;;;;;;1.98;1.27;;;;;;;;;;7583370;19;20055;-75
2024/03/13 15:16:08;;;;;;;9.88;1.30;;;;;;;;;;7582587;19;20026;-73
2024/03/13 15:18:41;;;;;;;3.72;1.50;;;;;;;;;;7591291;19;20205;-73
2024/03/13 15:21:16;;;;;;;2.40;1.20;;;;;;;;;;7581861;19;20014;-73
2024/03/13 15:23:49;;;;;;;2.25;1.50;;;;;;;;;;7579665;19;20071;-73
2024/03/13 15:26:22;;;;;;;3.58;1.70;;;;;;;;;;7569544;19;20078;-73
2024/03/13 15:28:55;;;;;;;2.70;1.17;;;;;;;;;;7590185;19;20355;-73
2024/03/13 15:31:29;;;;;;;2.88;1.48;;;;;;;;;;7582976;19;20022;-73
2024/03/13 15:34:03;;;;;;;13.83;3.40;;;;;;;;;;7579043;19;20025;-74
2024/03/13 15:36:36;;;;;;;10.52;1.60;;;;;;;;;;7581961;19;20019;-76
2024/03/13 15:39:13;;;;;;;8.75;2.13;;;;;;;;;;7572353;19;20527;-72
2024/03/13 15:41:46;;;;;;;5.15;1.67;;;;;;;;;;7589765;19;20015;-74
2024/03/13 15:44:20;;;;;;;2.40;1.58;;;;;;;;;;7576285;19;20022;-73